sensor_id;sensor_type;location;lat;lon;timestamp;pressure;altitude;pressure_sealevel;temperature;humidity
28935;BME280;16044;52.726;-2.108;2023-03-18T00:02:00;99291.28;;;10.67;100.00
28935;BME280;16044;52.726;-2.108;2023-03-18T00:04:28;99292.13;;;10.67;100.00
28935;BME280;16044;52.726;-2.108;2023-03-18T00:06:56;99289.84;;;10.64;100.00
28935;BME280;16044;52.726;-2.108;2023-03-18T00:09:23;99293.59;;;10.63;100.00
28935;BME280;16044;52.726;-2.108;2023-03-18T00:11:50;99295.47;;;10.63;100.00
28935;BME280;16044;52.726;-2.108;2023-03-18T00:14:17;99298.38;;;10.61;100.00
28935;BME280;16044;52.726;-2.108;2023-03-18T00:16:44;99296.69;;;10.60;100.00
28935;BME280;16044;52.726;-2.108;2023-03-18T00:19:11;99299.19;;;10.62;100.00
28935;BME280;16044;52.726;-2.108;2023-03-18T00:21:38;99301.47;;;10.58;100.00
28935;BME280;16044;52.726;-2.108;2023-03-18T00:24:05;99305.44;;;10.62;100.00
28935;BME280;16044;52.726;-2.108;2023-03-18T00:26:32;99300.03;;;10.62;100.00
28935;BME280;16044;52.726;-2.108;2023-03-18T00:28:59;99300.03;;;10.62;100.00
28935;BME280;16044;52.726;-2.108;2023-03-18T00:31:26;99302.34;;;10.65;100.00
28935;BME280;16044;52.726;-2.108;2023-03-18T00:33:55;99304.22;;;10.65;100.00
28935;BME280;16044;52.726;-2.108;2023-03-18T00:36:22;99300.44;;;10.66;100.00
28935;BME280;16044;52.726;-2.108;2023-03-18T00:38:54;99299.63;;;10.65;100.00
28935;BME280;16044;52.726;-2.108;2023-03-18T00:41:30;99306.31;;;10.63;100.00
28935;BME280;16044;52.726;-2.108;2023-03-18T00:43:58;99307.56;;;10.67;100.00
28935;BME280;16044;52.726;-2.108;2023-03-18T00:46:28;99295.25;;;10.64;100.00
28935;BME280;16044;52.726;-2.108;2023-03-18T00:48:59;99287.13;;;10.64;100.00
28935;BME280;16044;52.726;-2.108;2023-03-18T00:51:29;99285.06;;;10.66;100.00
28935;BME280;16044;52.726;-2.108;2023-03-18T00:53:58;99291.69;;;10.64;100.00
28935;BME280;16044;52.726;-2.108;2023-03-18T00:56:32;99293.34;;;10.58;100.00
28935;BME280;16044;52.726;-2.108;2023-03-18T00:58:59;99296.91;;;10.59;100.00
28935;BME280;16044;52.726;-2.108;2023-03-18T01:01:27;99300.47;;;10.59;100.00
28935;BME280;16044;52.726;-2.108;2023-03-18T01:03:54;99303.78;;;10.61;100.00
28935;BME280;16044;52.726;-2.108;2023-03-18T01:06:27;99299.19;;;10.62;100.00
28935;BME280;16044;52.726;-2.108;2023-03-18T01:08:55;99310.88;;;10.62;100.00
28935;BME280;16044;52.726;-2.108;2023-03-18T01:11:24;99303.41;;;10.64;100.00
28935;BME280;16044;52.726;-2.108;2023-03-18T01:13:52;99304.63;;;10.62;100.00
28935;BME280;16044;52.726;-2.108;2023-03-18T01:16:20;99299.84;;;10.57;100.00
28935;BME280;16044;52.726;-2.108;2023-03-18T01:18:48;99300.47;;;10.59;100.00
28935;BME280;16044;52.726;-2.108;2023-03-18T01:21:15;99299.19;;;10.55;100.00
28935;BME280;16044;52.726;-2.108;2023-03-18T01:23:44;99300.66;;;10.58;100.00
28935;BME280;16044;52.726;-2.108;2023-03-18T01:26:11;99299.19;;;10.55;100.00
28935;BME280;16044;52.726;-2.108;2023-03-18T01:28:38;99293.78;;;10.55;100.00
28935;BME280;16044;52.726;-2.108;2023-03-18T01:31:05;99300.22;;;10.54;100.00
28935;BME280;16044;52.726;-2.108;2023-03-18T01:33:34;99309.81;;;10.57;100.00
28935;BME280;16044;52.726;-2.108;2023-03-18T01:36:03;99308.56;;;10.52;100.00
28935;BME280;16044;52.726;-2.108;2023-03-18T01:38:31;99300.22;;;10.54;100.00
28935;BME280;16044;52.726;-2.108;2023-03-18T01:40:59;99308.97;;;10.56;100.00
28935;BME280;16044;52.726;-2.108;2023-03-18T01:43:32;99310.44;;;10.52;100.00
28935;BME280;16044;52.726;-2.108;2023-03-18T01:50:06;99310.44;;;10.45;100.00
28935;BME280;16044;52.726;-2.108;2023-03-18T01:52:22;99312.13;;;10.53;100.00
28935;BME280;16044;52.726;-2.108;2023-03-18T01:55:02;99306.09;;;10.51;100.00
28935;BME280;16044;52.726;-2.108;2023-03-18T01:57:33;99313.78;;;10.54;100.00
28935;BME280;16044;52.726;-2.108;2023-03-18T02:00:02;99303.38;;;10.51;100.00
28935;BME280;16044;52.726;-2.108;2023-03-18T02:02:31;99299.59;;;10.52;100.00
28935;BME280;16044;52.726;-2.108;2023-03-18T02:05:02;99296.28;;;10.50;100.00
28935;BME280;16044;52.726;-2.108;2023-03-18T02:07:33;99292.94;;;10.48;100.00
28935;BME280;16044;52.726;-2.108;2023-03-18T02:10:09;99293.34;;;10.45;100.00
28935;BME280;16044;52.726;-2.108;2023-03-18T02:12:42;99289.59;;;10.46;100.00
28935;BME280;16044;52.726;-2.108;2023-03-18T02:15:15;99297.94;;;10.44;100.00
28935;BME280;16044;52.726;-2.108;2023-03-18T02:17:50;99295.22;;;10.44;100.00
28935;BME280;16044;52.726;-2.108;2023-03-18T02:20:33;99295.41;;;10.43;100.00
28935;BME280;16044;52.726;-2.108;2023-03-18T02:23:18;99301.47;;;10.38;100.00
28935;BME280;16044;52.726;-2.108;2023-03-18T02:26:19;99299.97;;;10.36;100.00
28935;BME280;16044;52.726;-2.108;2023-03-18T02:28:53;99296.03;;;10.38;100.00
28935;BME280;16044;52.726;-2.108;2023-03-18T02:31:23;99301.25;;;10.40;100.00
28935;BME280;16044;52.726;-2.108;2023-03-18T02:33:50;99297.50;;;10.41;100.00
28935;BME280;16044;52.726;-2.108;2023-03-18T02:36:21;99297.50;;;10.41;100.00
28935;BME280;16044;52.726;-2.108;2023-03-18T02:38:50;99300.84;;;10.43;100.00
28935;BME280;16044;52.726;-2.108;2023-03-18T02:41:21;99298.31;;;10.41;100.00
28935;BME280;16044;52.726;-2.108;2023-03-18T02:43:50;99301.03;;;10.41;100.00
28935;BME280;16044;52.726;-2.108;2023-03-18T02:49:04;99295.63;;;10.34;100.00
28935;BME280;16044;52.726;-2.108;2023-03-18T02:51:34;99294.34;;;10.37;100.00
28935;BME280;16044;52.726;-2.108;2023-03-18T02:54:11;99288.94;;;10.37;100.00
28935;BME280;16044;52.726;-2.108;2023-03-18T02:56:41;99292.47;;;10.38;100.00
28935;BME280;16044;52.726;-2.108;2023-03-18T02:59:09;99290.00;;;10.36;100.00
28935;BME280;16044;52.726;-2.108;2023-03-18T03:01:38;99294.13;;;10.32;100.00
28935;BME280;16044;52.726;-2.108;2023-03-18T03:04:06;99296.63;;;10.33;100.00
28935;BME280;16044;52.726;-2.108;2023-03-18T03:06:34;99292.28;;;10.32;100.00
28935;BME280;16044;52.726;-2.108;2023-03-18T03:09:03;99293.31;;;10.31;100.00
28935;BME280;16044;52.726;-2.108;2023-03-18T03:11:31;99297.06;;;10.30;100.00
28935;BME280;16044;52.726;-2.108;2023-03-18T03:13:58;99305.19;;;10.30;100.00
28935;BME280;16044;52.726;-2.108;2023-03-18T03:16:25;99297.22;;;10.29;100.00
28935;BME280;16044;52.726;-2.108;2023-03-18T03:18:53;99300.59;;;10.31;100.00
28935;BME280;16044;52.726;-2.108;2023-03-18T03:21:21;99300.78;;;10.29;100.00
28935;BME280;16044;52.726;-2.108;2023-03-18T03:23:48;99302.50;;;10.30;100.00
28935;BME280;16044;52.726;-2.108;2023-03-18T03:26:15;99300.59;;;10.31;100.00
28935;BME280;16044;52.726;-2.108;2023-03-18T03:28:43;99302.84;;;10.27;100.00
28935;BME280;16044;52.726;-2.108;2023-03-18T03:31:10;99300.78;;;10.29;100.00
28935;BME280;16044;52.726;-2.108;2023-03-18T03:33:38;99302.66;;;10.29;100.00
28935;BME280;16044;52.726;-2.108;2023-03-18T03:36:12;99309.09;;;10.28;100.00
28935;BME280;16044;52.726;-2.108;2023-03-18T03:38:40;99307.00;;;10.30;100.00
28935;BME280;16044;52.726;-2.108;2023-03-18T03:41:08;99308.66;;;10.24;100.00
28935;BME280;16044;52.726;-2.108;2023-03-18T03:43:41;99313.25;;;10.24;100.00
28935;BME280;16044;52.726;-2.108;2023-03-18T03:46:09;99314.06;;;10.24;100.00
28935;BME280;16044;52.726;-2.108;2023-03-18T03:48:37;99310.34;;;10.25;100.00
28935;BME280;16044;52.726;-2.108;2023-03-18T03:51:05;99304.50;;;10.22;100.00
28935;BME280;16044;52.726;-2.108;2023-03-18T03:53:33;99299.09;;;10.22;100.00
28935;BME280;16044;52.726;-2.108;2023-03-18T03:56:02;99294.69;;;10.21;100.00
28935;BME280;16044;52.726;-2.108;2023-03-18T03:58:30;99302.00;;;10.20;100.00
28935;BME280;16044;52.726;-2.108;2023-03-18T04:00:57;99303.66;;;10.21;100.00
28935;BME280;16044;52.726;-2.108;2023-03-18T04:03:25;99303.66;;;10.21;100.00
28935;BME280;16044;52.726;-2.108;2023-03-18T04:05:53;99307.41;;;10.20;100.00
28935;BME280;16044;52.726;-2.108;2023-03-18T04:08:21;99306.38;;;10.21;100.00
28935;BME280;16044;52.726;-2.108;2023-03-18T04:10:48;99309.91;;;10.22;100.00
28935;BME280;16044;52.726;-2.108;2023-03-18T04:13:15;99311.78;;;10.21;100.00
28935;BME280;16044;52.726;-2.108;2023-03-18T04:15:42;99310.31;;;10.19;100.00
28935;BME280;16044;52.726;-2.108;2023-03-18T04:18:09;99316.97;;;10.16;100.00
28935;BME280;16044;52.726;-2.108;2023-03-18T04:20:36;99315.28;;;10.15;100.00
28935;BME280;16044;52.726;-2.108;2023-03-18T04:23:04;99320.09;;;10.13;100.00
28935;BME280;16044;52.726;-2.108;2023-03-18T04:25:31;99323.41;;;10.08;100.00
28935;BME280;16044;52.726;-2.108;2023-03-18T04:27:58;99327.56;;;10.04;100.00
28935;BME280;16044;52.726;-2.108;2023-03-18T04:30:25;99335.25;;;10.01;100.00
28935;BME280;16044;52.726;-2.108;2023-03-18T04:32:53;99333.56;;;10.00;100.00
28935;BME280;16044;52.726;-2.108;2023-03-18T04:35:21;99337.31;;;9.99;100.00
28935;BME280;16044;52.726;-2.108;2023-03-18T04:37:49;99333.56;;;10.00;100.00
28935;BME280;16044;52.726;-2.108;2023-03-18T04:40:16;99337.31;;;9.99;100.00
28935;BME280;16044;52.726;-2.108;2023-03-18T04:42:43;99337.31;;;9.99;100.00
28935;BME280;16044;52.726;-2.108;2023-03-18T04:45:14;99341.06;;;9.98;100.00
28935;BME280;16044;52.726;-2.108;2023-03-18T04:47:42;99336.06;;;9.94;100.00
28935;BME280;16044;52.726;-2.108;2023-03-18T04:50:12;99338.97;;;9.93;100.00
28935;BME280;16044;52.726;-2.108;2023-03-18T04:52:40;99345.19;;;9.93;100.00
28935;BME280;16044;52.726;-2.108;2023-03-18T04:55:08;99348.97;;;9.92;100.00
28935;BME280;16044;52.726;-2.108;2023-03-18T04:57:37;99342.25;;;9.88;100.00
28935;BME280;16044;52.726;-2.108;2023-03-18T05:00:09;99341.44;;;9.88;100.00
28935;BME280;16044;52.726;-2.108;2023-03-18T05:02:38;99351.00;;;9.90;100.00
28935;BME280;16044;52.726;-2.108;2023-03-18T05:05:06;99351.00;;;9.90;100.00
28935;BME280;16044;52.726;-2.108;2023-03-18T05:07:33;99353.53;;;9.92;100.00
28935;BME280;16044;52.726;-2.108;2023-03-18T05:10:01;99356.03;;;9.93;100.00
28935;BME280;16044;52.726;-2.108;2023-03-18T05:12:29;99354.38;;;9.92;100.00
28935;BME280;16044;52.726;-2.108;2023-03-18T05:14:57;99346.88;;;9.94;100.00
28935;BME280;16044;52.726;-2.108;2023-03-18T05:17:24;99353.94;;;9.95;100.00
28935;BME280;16044;52.726;-2.108;2023-03-18T05:19:50;99355.63;;;9.97;100.00
28935;BME280;16044;52.726;-2.108;2023-03-18T05:22:19;99360.00;;;9.98;100.00
28935;BME280;16044;52.726;-2.108;2023-03-18T05:24:47;99354.78;;;9.96;100.00
28935;BME280;16044;52.726;-2.108;2023-03-18T05:27:17;99354.59;;;9.98;100.00
28935;BME280;16044;52.726;-2.108;2023-03-18T05:29:45;99359.38;;;9.95;100.00
28935;BME280;16044;52.726;-2.108;2023-03-18T05:32:12;99355.63;;;9.97;100.00
28935;BME280;16044;52.726;-2.108;2023-03-18T05:34:41;99357.91;;;9.93;100.00
28935;BME280;16044;52.726;-2.108;2023-03-18T05:37:10;99347.72;;;9.95;100.00
28935;BME280;16044;52.726;-2.108;2023-03-18T05:39:39;99358.94;;;9.92;100.00
28935;BME280;16044;52.726;-2.108;2023-03-18T05:42:07;99349.34;;;9.89;100.00
28935;BME280;16044;52.726;-2.108;2023-03-18T05:44:34;99355.59;;;9.90;100.00
28935;BME280;16044;52.726;-2.108;2023-03-18T05:47:01;99364.75;;;9.89;100.00
28935;BME280;16044;52.726;-2.108;2023-03-18T05:49:28;99352.06;;;9.89;100.00
28935;BME280;16044;52.726;-2.108;2023-03-18T05:51:55;99356.84;;;9.87;100.00
28935;BME280;16044;52.726;-2.108;2023-03-18T05:54:22;99366.41;;;9.83;100.00
28935;BME280;16044;52.726;-2.108;2023-03-18T05:56:49;99364.31;;;9.85;100.00
28935;BME280;16044;52.726;-2.108;2023-03-18T05:59:19;99365.97;;;9.86;100.00
28935;BME280;16044;52.726;-2.108;2023-03-18T06:01:47;99370.56;;;9.86;100.00
28935;BME280;16044;52.726;-2.108;2023-03-18T06:04:15;99375.34;;;9.84;100.00
28935;BME280;16044;52.726;-2.108;2023-03-18T06:06:42;99365.97;;;9.80;100.00
28935;BME280;16044;52.726;-2.108;2023-03-18T06:09:11;99374.53;;;9.83;100.00
28935;BME280;16044;52.726;-2.108;2023-03-18T06:11:39;99380.13;;;9.82;100.00
28935;BME280;16044;52.726;-2.108;2023-03-18T06:14:07;99375.72;;;9.74;100.00
28935;BME280;16044;52.726;-2.108;2023-03-18T06:16:34;99373.00;;;9.74;100.00
28935;BME280;16044;52.726;-2.108;2023-03-18T06:19:03;99382.56;;;9.70;100.00
28935;BME280;16044;52.726;-2.108;2023-03-18T06:21:30;99391.31;;;9.72;100.00
28935;BME280;16044;52.726;-2.108;2023-03-18T06:23:59;99393.38;;;9.70;100.00
28935;BME280;16044;52.726;-2.108;2023-03-18T06:26:27;99389.19;;;9.67;100.00
28935;BME280;16044;52.726;-2.108;2023-03-18T06:28:55;99392.50;;;9.63;100.00
28935;BME280;16044;52.726;-2.108;2023-03-18T06:31:24;99387.09;;;9.63;100.00
28935;BME280;16044;52.726;-2.108;2023-03-18T06:33:51;99391.66;;;9.62;100.00
28935;BME280;16044;52.726;-2.108;2023-03-18T06:36:19;99390.81;;;9.62;100.00
28935;BME280;16044;52.726;-2.108;2023-03-18T06:38:47;99396.22;;;9.62;100.00
28935;BME280;16044;52.726;-2.108;2023-03-18T06:41:14;99390.81;;;9.62;100.00
28935;BME280;16044;52.726;-2.108;2023-03-18T06:43:41;99396.03;;;9.63;100.00
28935;BME280;16044;52.726;-2.108;2023-03-18T06:46:09;99405.81;;;9.64;100.00
28935;BME280;16044;52.726;-2.108;2023-03-18T06:48:36;99396.66;;;9.65;100.00
28935;BME280;16044;52.726;-2.108;2023-03-18T06:51:06;99391.06;;;9.67;100.00
28935;BME280;16044;52.726;-2.108;2023-03-18T06:53:33;99386.91;;;9.71;100.00
28935;BME280;16044;52.726;-2.108;2023-03-18T06:56:05;99396.72;;;9.72;100.00
28935;BME280;16044;52.726;-2.108;2023-03-18T06:58:33;99395.28;;;9.76;100.00
28935;BME280;16044;52.726;-2.108;2023-03-18T07:01:00;99406.75;;;9.78;100.00
28935;BME280;16044;52.726;-2.108;2023-03-18T07:03:27;99401.97;;;9.80;100.00
28935;BME280;16044;52.726;-2.108;2023-03-18T07:05:53;99398.25;;;9.81;100.00
28935;BME280;16044;52.726;-2.108;2023-03-18T07:08:21;99404.28;;;9.83;100.00
28935;BME280;16044;52.726;-2.108;2023-03-18T07:10:51;99410.72;;;9.82;100.00
28935;BME280;16044;52.726;-2.108;2023-03-18T07:13:21;99403.88;;;9.86;100.00
28935;BME280;16044;52.726;-2.108;2023-03-18T07:15:48;99411.34;;;9.84;100.00
28935;BME280;16044;52.726;-2.108;2023-03-18T07:18:15;99405.38;;;9.89;100.00
28935;BME280;16044;52.726;-2.108;2023-03-18T07:20:42;99409.34;;;9.93;100.00
28935;BME280;16044;52.726;-2.108;2023-03-18T07:23:09;99415.59;;;9.93;100.00
28935;BME280;16044;52.726;-2.108;2023-03-18T07:25:37;99420.59;;;9.97;100.00
28935;BME280;16044;52.726;-2.108;2023-03-18T07:28:04;99417.28;;;10.01;100.00
28935;BME280;16044;52.726;-2.108;2023-03-18T07:30:31;99426.47;;;10.07;100.00
28935;BME280;16044;52.726;-2.108;2023-03-18T07:32:59;99423.38;;;10.10;100.00
28935;BME280;16044;52.726;-2.108;2023-03-18T07:35:26;99428.00;;;10.16;100.00
28935;BME280;16044;52.726;-2.108;2023-03-18T07:37:54;99427.38;;;10.21;100.00
28935;BME280;16044;52.726;-2.108;2023-03-18T07:40:21;99428.69;;;10.25;100.00
28935;BME280;16044;52.726;-2.108;2023-03-18T07:42:48;99436.66;;;10.33;100.00
28935;BME280;16044;52.726;-2.108;2023-03-18T07:45:17;99432.31;;;10.39;100.00
28935;BME280;16044;52.726;-2.108;2023-03-18T07:47:43;99439.00;;;10.43;100.00
28935;BME280;16044;52.726;-2.108;2023-03-18T07:50:12;99443.59;;;10.49;100.00
28935;BME280;16044;52.726;-2.108;2023-03-18T07:52:39;99442.38;;;10.58;100.00
28935;BME280;16044;52.726;-2.108;2023-03-18T07:55:10;99447.03;;;10.64;100.00
28935;BME280;16044;52.726;-2.108;2023-03-18T07:57:37;99449.72;;;10.71;100.00
28935;BME280;16044;52.726;-2.108;2023-03-18T08:00:06;99447.25;;;10.76;100.00
28935;BME280;16044;52.726;-2.108;2023-03-18T08:02:34;99458.34;;;10.81;100.00
28935;BME280;16044;52.726;-2.108;2023-03-18T08:05:02;99458.34;;;10.88;100.00
28935;BME280;16044;52.726;-2.108;2023-03-18T08:07:30;99460.44;;;10.92;100.00
28935;BME280;16044;52.726;-2.108;2023-03-18T08:09:56;99463.78;;;10.95;100.00
28935;BME280;16044;52.726;-2.108;2023-03-18T08:12:24;99470.91;;;11.02;100.00
28935;BME280;16044;52.726;-2.108;2023-03-18T08:14:51;99453.59;;;11.03;100.00
28935;BME280;16044;52.726;-2.108;2023-03-18T08:17:18;99452.75;;;11.03;100.00
28935;BME280;16044;52.726;-2.108;2023-03-18T08:19:46;99459.47;;;11.14;100.00
28935;BME280;16044;52.726;-2.108;2023-03-18T08:22:14;99456.75;;;11.20;100.00
28935;BME280;16044;52.726;-2.108;2023-03-18T08:24:41;99460.50;;;11.26;100.00
28935;BME280;16044;52.726;-2.108;2023-03-18T08:27:10;99458.63;;;11.26;100.00
28935;BME280;16044;52.726;-2.108;2023-03-18T08:29:37;99461.56;;;11.31;100.00
28935;BME280;16044;52.726;-2.108;2023-03-18T08:32:05;99460.97;;;11.36;100.00
28935;BME280;16044;52.726;-2.108;2023-03-18T08:34:33;99464.91;;;11.40;100.00
28935;BME280;16044;52.726;-2.108;2023-03-18T08:37:01;99469.72;;;11.45;100.00
28935;BME280;16044;52.726;-2.108;2023-03-18T08:39:28;99478.50;;;11.54;100.00
28935;BME280;16044;52.726;-2.108;2023-03-18T08:41:55;99467.44;;;11.55;100.00
28935;BME280;16044;52.726;-2.108;2023-03-18T08:44:22;99473.47;;;11.64;100.00
28935;BME280;16044;52.726;-2.108;2023-03-18T08:46:49;99471.41;;;11.73;100.00
28935;BME280;16044;52.726;-2.108;2023-03-18T08:49:16;99479.53;;;11.79;100.00
28935;BME280;16044;52.726;-2.108;2023-03-18T08:51:43;99484.16;;;11.85;100.00
28935;BME280;16044;52.726;-2.108;2023-03-18T08:54:10;99484.16;;;11.85;100.00
28935;BME280;16044;52.726;-2.108;2023-03-18T08:56:37;99475.56;;;11.88;100.00
28935;BME280;16044;52.726;-2.108;2023-03-18T08:59:04;99478.09;;;11.83;100.00
28935;BME280;16044;52.726;-2.108;2023-03-18T09:01:31;99479.75;;;11.84;100.00
28935;BME280;16044;52.726;-2.108;2023-03-18T09:03:58;99484.75;;;11.87;100.00
28935;BME280;16044;52.726;-2.108;2023-03-18T09:06:25;99479.56;;;11.93;100.00
28935;BME280;16044;52.726;-2.108;2023-03-18T09:08:53;99482.06;;;12.01;100.00
28935;BME280;16044;52.726;-2.108;2023-03-18T09:11:20;99481.00;;;12.08;100.00
28935;BME280;16044;52.726;-2.108;2023-03-18T09:13:47;99489.75;;;12.17;100.00
28935;BME280;16044;52.726;-2.108;2023-03-18T09:16:14;99483.91;;;12.20;100.00
28935;BME280;16044;52.726;-2.108;2023-03-18T09:18:41;99490.16;;;12.21;100.00
28935;BME280;16044;52.726;-2.108;2023-03-18T09:21:11;99490.59;;;12.24;100.00
28935;BME280;16044;52.726;-2.108;2023-03-18T09:23:38;99480.75;;;12.30;100.00
28935;BME280;16044;52.726;-2.108;2023-03-18T09:26:05;99487.22;;;12.36;100.00
28935;BME280;16044;52.726;-2.108;2023-03-18T09:28:31;99484.09;;;12.39;100.00
28935;BME280;16044;52.726;-2.108;2023-03-18T09:30:58;99484.28;;;12.44;100.00
28935;BME280;16044;52.726;-2.108;2023-03-18T09:33:26;99476.31;;;12.49;100.00
28935;BME280;16044;52.726;-2.108;2023-03-18T09:35:53;99485.69;;;12.53;100.00
28935;BME280;16044;52.726;-2.108;2023-03-18T09:38:20;99483.78;;;12.60;100.00
28935;BME280;16044;52.726;-2.108;2023-03-18T09:49:20;99491.06;;;12.73;100.00
28935;BME280;16044;52.726;-2.108;2023-03-18T09:52:23;99487.69;;;12.84;100.00
28935;BME280;16044;52.726;-2.108;2023-03-18T09:54:58;99485.38;;;12.88;100.00
28935;BME280;16044;52.726;-2.108;2023-03-18T09:57:41;99488.69;;;12.90;100.00
28935;BME280;16044;52.726;-2.108;2023-03-18T10:00:32;99487.22;;;12.94;100.00
28935;BME280;16044;52.726;-2.108;2023-03-18T10:05:51;99498.50;;;12.98;100.00
28935;BME280;16044;52.726;-2.108;2023-03-18T10:11:16;99498.53;;;12.91;99.89
28935;BME280;16044;52.726;-2.108;2023-03-18T10:14:16;99495.38;;;12.94;100.00
28935;BME280;16044;52.726;-2.108;2023-03-18T10:17:23;99505.84;;;12.91;99.03
28935;BME280;16044;52.726;-2.108;2023-03-18T10:19:52;99504.59;;;12.86;98.76
28935;BME280;16044;52.726;-2.108;2023-03-18T10:25:42;99502.22;;;13.10;98.81
28935;BME280;16044;52.726;-2.108;2023-03-18T10:31:25;99510.88;;;13.32;96.86
28935;BME280;16044;52.726;-2.108;2023-03-18T10:33:58;99513.38;;;13.40;95.54
28935;BME280;16044;52.726;-2.108;2023-03-18T10:36:37;99507.94;;;13.40;95.28
28935;BME280;16044;52.726;-2.108;2023-03-18T10:39:14;99513.78;;;13.44;95.23
28935;BME280;16044;52.726;-2.108;2023-03-18T10:41:47;99498.59;;;13.55;95.57
28935;BME280;16044;52.726;-2.108;2023-03-18T10:47:02;99505.44;;;13.64;94.39
28935;BME280;16044;52.726;-2.108;2023-03-18T10:49:39;99512.91;;;13.75;92.76
28935;BME280;16044;52.726;-2.108;2023-03-18T10:52:19;99514.28;;;13.84;93.06
28935;BME280;16044;52.726;-2.108;2023-03-18T10:55:12;99509.63;;;13.92;92.52
28935;BME280;16044;52.726;-2.108;2023-03-18T10:57:42;99502.84;;;14.01;92.82
28935;BME280;16044;52.726;-2.108;2023-03-18T11:02:55;99494.69;;;14.19;90.77
28935;BME280;16044;52.726;-2.108;2023-03-18T11:05:28;99505.31;;;14.28;90.73
28935;BME280;16044;52.726;-2.108;2023-03-18T11:08:03;99505.78;;;14.43;90.09
28935;BME280;16044;52.726;-2.108;2023-03-18T11:10:36;99511.31;;;14.55;89.62
28935;BME280;16044;52.726;-2.108;2023-03-18T11:13:15;99508.94;;;14.65;88.95
28935;BME280;16044;52.726;-2.108;2023-03-18T11:15:48;99506.72;;;14.74;88.15
28935;BME280;16044;52.726;-2.108;2023-03-18T11:18:22;99510.22;;;14.81;87.00
28935;BME280;16044;52.726;-2.108;2023-03-18T11:20:58;99509.06;;;14.89;87.29
28935;BME280;16044;52.726;-2.108;2023-03-18T11:23:35;99503.53;;;14.95;86.21
28935;BME280;16044;52.726;-2.108;2023-03-18T11:26:26;99512.78;;;14.94;84.05
28935;BME280;16044;52.726;-2.108;2023-03-18T11:29:01;99513.53;;;14.83;83.85
28935;BME280;16044;52.726;-2.108;2023-03-18T11:31:31;99512.28;;;14.67;84.96
28935;BME280;16044;52.726;-2.108;2023-03-18T11:33:58;99508.03;;;14.71;85.46
28935;BME280;16044;52.726;-2.108;2023-03-18T11:36:27;99513.38;;;14.41;87.24
28935;BME280;16044;52.726;-2.108;2023-03-18T11:39:01;99507.75;;;14.36;87.93
28935;BME280;16044;52.726;-2.108;2023-03-18T11:41:29;99504.72;;;14.26;88.87
28935;BME280;16044;52.726;-2.108;2023-03-18T11:44:14;99503.50;;;14.21;89.31
28935;BME280;16044;52.726;-2.108;2023-03-18T11:46:56;99504.72;;;14.26;88.90
28935;BME280;16044;52.726;-2.108;2023-03-18T11:49:27;99502.59;;;14.28;89.58
28935;BME280;16044;52.726;-2.108;2023-03-18T12:01:38;99507.19;;;14.71;85.88
28935;BME280;16044;52.726;-2.108;2023-03-18T12:13:14;99507.47;;;14.81;83.54
28935;BME280;16044;52.726;-2.108;2023-03-18T12:16:20;99508.84;;;14.72;83.50
28935;BME280;16044;52.726;-2.108;2023-03-18T12:22:13;99511.09;;;14.56;83.64
28935;BME280;16044;52.726;-2.108;2023-03-18T12:27:42;99505.19;;;14.41;83.03
28935;BME280;16044;52.726;-2.108;2023-03-18T12:30:48;99504.50;;;14.46;84.18
28935;BME280;16044;52.726;-2.108;2023-03-18T12:36:21;99506.94;;;14.54;84.12
28935;BME280;16044;52.726;-2.108;2023-03-18T12:42:01;99506.22;;;14.65;84.46
28935;BME280;16044;52.726;-2.108;2023-03-18T12:50:11;99504.69;;;14.88;84.75
28935;BME280;16044;52.726;-2.108;2023-03-18T12:52:57;99502.31;;;14.91;83.76
28935;BME280;16044;52.726;-2.108;2023-03-18T12:55:31;99498.81;;;15.02;82.10
28935;BME280;16044;52.726;-2.108;2023-03-18T12:58:12;99498.34;;;15.06;80.66
28935;BME280;16044;52.726;-2.108;2023-03-18T13:00:58;99497.41;;;15.12;80.84
28935;BME280;16044;52.726;-2.108;2023-03-18T13:03:38;99492.72;;;15.19;79.08
28935;BME280;16044;52.726;-2.108;2023-03-18T13:06:46;99491.78;;;15.25;78.16
28935;BME280;16044;52.726;-2.108;2023-03-18T13:09:53;99501.78;;;15.31;75.90
28935;BME280;16044;52.726;-2.108;2023-03-18T13:12:37;99499.53;;;15.40;78.32
28935;BME280;16044;52.726;-2.108;2023-03-18T13:15:29;99497.03;;;15.38;77.32
28935;BME280;16044;52.726;-2.108;2023-03-18T13:18:02;99499.47;;;15.47;78.32
28935;BME280;16044;52.726;-2.108;2023-03-18T13:20:39;99500.44;;;15.52;77.31
28935;BME280;16044;52.726;-2.108;2023-03-18T13:26:13;99495.34;;;15.68;76.82
28935;BME280;16044;52.726;-2.108;2023-03-18T13:32:07;99494.25;;;15.57;70.42
28935;BME280;16044;52.726;-2.108;2023-03-18T13:41:39;99486.34;;;15.67;74.05
28935;BME280;16044;52.726;-2.108;2023-03-18T13:44:00;99496.13;;;15.75;74.33
28935;BME280;16044;52.726;-2.108;2023-03-18T13:46:32;99495.16;;;15.81;73.42
28935;BME280;16044;52.726;-2.108;2023-03-18T13:49:01;99494.09;;;15.82;72.35
28935;BME280;16044;52.726;-2.108;2023-03-18T13:53:58;99495.41;;;15.79;73.43
28935;BME280;16044;52.726;-2.108;2023-03-18T13:56:31;99493.84;;;15.84;72.37
28935;BME280;16044;52.726;-2.108;2023-03-18T13:59:03;99495.16;;;15.81;72.92
28935;BME280;16044;52.726;-2.108;2023-03-18T14:01:35;99482.22;;;15.76;73.11
28935;BME280;16044;52.726;-2.108;2023-03-18T14:07:20;99476.91;;;15.63;73.02
28935;BME280;16044;52.726;-2.108;2023-03-18T14:12:45;99492.00;;;15.54;73.87
28935;BME280;16044;52.726;-2.108;2023-03-18T14:17:44;99490.38;;;15.34;73.86
28935;BME280;16044;52.726;-2.108;2023-03-18T14:22:45;99493.16;;;15.16;74.06
28935;BME280;16044;52.726;-2.108;2023-03-18T14:27:46;99482.13;;;15.11;73.57
28935;BME280;16044;52.726;-2.108;2023-03-18T14:30:44;99491.50;;;15.15;73.43
28935;BME280;16044;52.726;-2.108;2023-03-18T14:35:48;99491.13;;;15.11;73.18
28935;BME280;16044;52.726;-2.108;2023-03-18T14:38:59;99486.69;;;14.98;73.50
28935;BME280;16044;52.726;-2.108;2023-03-18T14:41:37;99494.28;;;14.96;74.41
28935;BME280;16044;52.726;-2.108;2023-03-18T14:44:19;99490.13;;;14.94;73.73
28935;BME280;16044;52.726;-2.108;2023-03-18T14:46:58;99485.59;;;14.88;74.42